createdAt,value
2022-08-05T00:01:00.948Z,101453.72
2022-08-05T00:03:58.167Z,101455.50
2022-08-05T00:06:37.976Z,101456.25
2022-08-05T00:09:19.590Z,101458.03
2022-08-05T00:11:59.954Z,101457.34
2022-08-05T00:14:41.816Z,101458.19
2022-08-05T00:17:20.398Z,101458.44
2022-08-05T00:20:01.777Z,101462.84
2022-08-05T00:22:40.197Z,101462.75
2022-08-05T00:25:26.431Z,101464.59
2022-08-05T00:28:29.641Z,101458.66
2022-08-05T00:31:14.066Z,101454.19
2022-08-05T00:34:43.361Z,101449.56
2022-08-05T00:37:12.534Z,101451.81
2022-08-05T00:39:58.751Z,101455.38
2022-08-05T00:42:40.866Z,101450.44
2022-08-05T00:45:14.075Z,101453.22
2022-08-05T00:48:12.853Z,101462.97
2022-08-05T00:51:51.080Z,101446.63
2022-08-05T00:54:27.978Z,101449.31
2022-08-05T00:56:59.977Z,101449.31
2022-08-05T00:59:57.575Z,101453.97
2022-08-05T01:02:44.754Z,101448.47
2022-08-05T01:05:49.680Z,101453.03
2022-08-05T01:08:43.234Z,101457.47
2022-08-05T01:11:22.269Z,101457.41
2022-08-05T01:14:08.974Z,101462.97
2022-08-05T01:16:44.785Z,101463.06
2022-08-05T01:19:46.116Z,101463.34
2022-08-05T01:22:29.096Z,101462.81
2022-08-05T01:25:40.647Z,101462.28
2022-08-05T01:28:24.686Z,101467.22
2022-08-05T01:30:56.016Z,101469.31
2022-08-05T01:33:35.387Z,101471.56
2022-08-05T01:36:13.146Z,101466.31
2022-08-05T01:38:48.517Z,101461.97
2022-08-05T01:41:25.814Z,101464.66
2022-08-05T01:43:57.875Z,101463.81
2022-08-05T01:46:42.560Z,101464.19
2022-08-05T01:49:23.753Z,101460.56
2022-08-05T01:51:58.777Z,101459.03
2022-08-05T01:54:33.655Z,101460.88
2022-08-05T01:58:13.575Z,101458.09
2022-08-05T01:59:59.322Z,101461.34
2022-08-05T02:02:29.717Z,101460.34
2022-08-05T02:05:01.406Z,101467.97
2022-08-05T02:07:33.652Z,101459.41
2022-08-05T02:10:03.576Z,101461.50
2022-08-05T02:12:38.756Z,101458.88
2022-08-05T02:15:15.566Z,101456.41
2022-08-05T02:18:33.037Z,101452.88
2022-08-05T02:20:47.566Z,101461.63
2022-08-05T02:23:22.549Z,101455.81
2022-08-05T02:25:52.533Z,101455.56
2022-08-05T02:28:28.450Z,101462.88
2022-08-05T02:31:04.102Z,101459.25
2022-08-05T02:33:39.466Z,101456.25
2022-08-05T02:36:13.721Z,101460.31
2022-08-05T02:38:53.505Z,101458.94
2022-08-05T02:41:28.840Z,101464.16
2022-08-05T02:44:13.334Z,101460.72
2022-08-05T02:47:00.014Z,101453.16
2022-08-05T02:49:36.138Z,101448.75
2022-08-05T02:52:07.757Z,101447.06
2022-08-05T02:54:37.785Z,101460.22
2022-08-05T02:58:11.929Z,101448.59
2022-08-05T03:00:02.276Z,101446.91
2022-08-05T03:02:38.125Z,101449.28
2022-08-05T03:05:10.238Z,101448.50
2022-08-05T03:08:00.168Z,101447.28
2022-08-05T03:10:29.095Z,101447.91
2022-08-05T03:15:24.786Z,101454.78
2022-08-05T03:17:57.851Z,101455.75
2022-08-05T03:20:27.856Z,101452.22
2022-08-05T03:22:58.119Z,101441.69
2022-08-05T03:25:32.809Z,101447.06
2022-08-05T03:28:03.685Z,101445.44
2022-08-05T03:30:34.440Z,101449.84
2022-08-05T03:33:07.396Z,101453.59
2022-08-05T03:35:41.139Z,101452.69
2022-08-05T03:38:12.687Z,101460.38
2022-08-05T03:40:45.360Z,101457.69
2022-08-05T03:44:09.760Z,101451.97
2022-08-05T03:46:08.235Z,101455.66
2022-08-05T03:48:38.334Z,101457.50
2022-08-05T03:52:48.930Z,101453.63
2022-08-05T03:55:50.508Z,101445.28
2022-08-05T03:57:00.551Z,101444.34
2022-08-05T03:59:46.537Z,101441.94
2022-08-05T04:02:17.383Z,101449.03
2022-08-05T04:05:05.875Z,101444.78
2022-08-05T04:07:57.232Z,101454.31
2022-08-05T04:10:30.883Z,101453.47
2022-08-05T04:13:04.329Z,101447.41
2022-08-05T04:15:36.048Z,101450.94
2022-08-05T04:18:06.717Z,101450.25
2022-08-05T04:20:37.393Z,101445.00
2022-08-05T04:23:05.885Z,101444.13
2022-08-05T04:25:57.345Z,101449.53
2022-08-05T04:28:31.605Z,101447.63
2022-08-05T04:31:01.591Z,101452.78
2022-08-05T04:33:54.489Z,101458.31
2022-08-05T04:36:45.259Z,101452.13
2022-08-05T04:39:15.086Z,101453.91
2022-08-05T04:41:43.564Z,101461.91
2022-08-05T04:44:14.044Z,101456.69
2022-08-05T04:46:46.913Z,101462.56
2022-08-05T04:49:15.462Z,101472.19
2022-08-05T04:51:45.937Z,101467.78
2022-08-05T04:54:15.934Z,101475.00
2022-08-05T04:56:44.314Z,101468.13
2022-08-05T04:59:22.400Z,101470.84
2022-08-05T05:02:07.417Z,101469.75
2022-08-05T05:04:47.812Z,101467.09
2022-08-05T05:07:23.842Z,101474.16
2022-08-05T05:09:57.744Z,101479.53
2022-08-05T05:12:27.557Z,101479.53
2022-08-05T05:14:56.144Z,101478.53
2022-08-05T05:17:57.128Z,101479.53
2022-08-05T05:20:14.351Z,101488.31
2022-08-05T05:22:44.280Z,101487.47
2022-08-05T05:25:16.342Z,101482.00
2022-08-05T05:27:53.646Z,101489.94
2022-08-05T05:30:30.506Z,101495.09
2022-08-05T05:33:09.436Z,101485.56
2022-08-05T05:35:46.945Z,101495.22
2022-08-05T05:38:22.806Z,101489.06
2022-08-05T05:40:56.264Z,101494.25
2022-08-05T05:43:57.662Z,101497.56
2022-08-05T05:46:17.627Z,101501.03
2022-08-05T05:48:49.064Z,101502.88
2022-08-05T05:51:22.033Z,101497.66
2022-08-05T05:53:57.657Z,101504.50
2022-08-05T05:56:32.562Z,101508.59
2022-08-05T05:59:04.019Z,101506.91
2022-08-05T06:01:38.091Z,101507.63
2022-08-05T06:04:12.168Z,101509.44
2022-08-05T06:06:42.900Z,101514.69
2022-08-05T06:09:17.076Z,101513.78
2022-08-05T06:12:01.976Z,101515.38
2022-08-05T06:14:31.501Z,101527.34
2022-08-05T06:17:01.902Z,101521.97
2022-08-05T06:19:35.088Z,101532.44
2022-08-05T06:22:04.386Z,101526.31
2022-08-05T06:24:37.365Z,101526.22
2022-08-05T06:27:06.404Z,101524.38
2022-08-05T06:30:04.530Z,101529.31
2022-08-05T06:32:36.064Z,101529.94
2022-08-05T06:35:21.599Z,101530.63
2022-08-05T06:37:57.544Z,101536.38
2022-08-05T06:40:32.498Z,101539.41
2022-08-05T06:43:01.479Z,101539.88
2022-08-05T06:45:44.673Z,101536.09
2022-08-05T06:48:53.820Z,101540.81
2022-08-05T06:51:09.664Z,101539.63
2022-08-05T06:53:39.146Z,101542.78
2022-08-05T06:56:24.913Z,101540.84
2022-08-05T06:58:55.238Z,101545.41
2022-08-05T07:01:23.820Z,101544.25
2022-08-05T07:04:02.205Z,101538.59
2022-08-05T07:06:31.716Z,101540.16
2022-08-05T07:09:03.860Z,101546.94
2022-08-05T07:11:36.777Z,101548.31
2022-08-05T07:14:29.530Z,101547.00
2022-08-05T07:18:07.193Z,101547.91
2022-08-05T07:22:41.909Z,101560.84
2022-08-05T07:25:22.620Z,101564.75
2022-08-05T07:28:05.964Z,101567.00
2022-08-05T07:30:40.514Z,101562.00
2022-08-05T07:33:16.210Z,101559.22
2022-08-05T07:36:02.606Z,101566.38
2022-08-05T07:38:43.732Z,101563.66
2022-08-05T07:42:07.943Z,101569.16
2022-08-05T07:44:18.553Z,101563.13
2022-08-05T07:46:50.409Z,101570.16
2022-08-05T07:49:21.255Z,101566.75
2022-08-05T07:51:53.700Z,101562.09
2022-08-05T07:54:31.465Z,101563.06
2022-08-05T07:57:17.765Z,101571.31
2022-08-05T07:59:54.419Z,101566.53
2022-08-05T08:02:30.983Z,101573.56
2022-08-05T08:05:18.079Z,101578.16
2022-08-05T08:07:58.926Z,101579.84
2022-08-05T08:10:30.412Z,101578.06
2022-08-05T08:12:59.014Z,101592.31
2022-08-05T08:16:33.331Z,101586.09
2022-08-05T08:18:20.827Z,101580.63
2022-08-05T08:21:03.349Z,101589.16
2022-08-05T08:24:02.054Z,101597.72
2022-08-05T08:26:26.885Z,101598.41
2022-08-05T08:29:02.339Z,101598.56
2022-08-05T08:31:49.893Z,101599.00
2022-08-05T08:34:29.867Z,101605.28
2022-08-05T08:37:03.297Z,101601.19
2022-08-05T08:39:37.348Z,101608.91
2022-08-05T08:42:10.729Z,101604.59
2022-08-05T08:45:23.924Z,101612.66
2022-08-05T08:48:07.686Z,101602.19
2022-08-05T08:51:03.373Z,101602.19
2022-08-05T08:53:29.836Z,101610.09
2022-08-05T08:56:04.574Z,101605.69
2022-08-05T08:58:43.286Z,101604.59
2022-08-05T09:01:17.457Z,101611.06
2022-08-05T09:03:55.060Z,101613.03
2022-08-05T09:06:28.121Z,101616.00
2022-08-05T09:08:59.843Z,101617.13
2022-08-05T09:11:52.612Z,101617.22
2022-08-05T09:14:58.424Z,101618.75
2022-08-05T09:17:09.562Z,101628.75
2022-08-05T09:20:01.810Z,101630.94
2022-08-05T09:23:07.984Z,101629.75
2022-08-05T09:26:00.857Z,101639.03
2022-08-05T09:28:31.935Z,101636.66
2022-08-05T09:31:23.353Z,101644.03
2022-08-05T09:33:55.264Z,101640.28
2022-08-05T09:36:38.719Z,101636.88
2022-08-05T09:39:39.518Z,101641.78
2022-08-05T09:42:23.048Z,101657.56
2022-08-05T09:44:57.451Z,101660.28
2022-08-05T09:47:55.431Z,101651.13
2022-08-05T09:50:38.266Z,101655.44
2022-08-05T09:53:23.044Z,101660.16
2022-08-05T09:56:11.354Z,101650.53
2022-08-05T09:58:42.348Z,101657.75
2022-08-05T10:01:22.687Z,101654.88
2022-08-05T10:04:03.648Z,101648.63
2022-08-05T10:06:32.645Z,101649.63
2022-08-05T10:09:27.771Z,101654.72
2022-08-05T10:11:57.205Z,101657.22
2022-08-05T10:14:30.296Z,101655.19
2022-08-05T10:17:38.006Z,101653.91
2022-08-05T10:20:09.966Z,101655.19
2022-08-05T10:22:43.096Z,101660.94
2022-08-05T10:25:21.057Z,101664.94
2022-08-05T10:28:12.768Z,101662.66
2022-08-05T10:31:20.849Z,101671.50
2022-08-05T10:33:29.514Z,101664.03
2022-08-05T10:36:05.239Z,101670.16
2022-08-05T10:38:36.354Z,101670.38
2022-08-05T10:41:15.645Z,101676.25
2022-08-05T10:43:56.811Z,101677.44
2022-08-05T10:46:45.360Z,101685.16
2022-08-05T10:49:16.942Z,101681.00
2022-08-05T10:51:57.351Z,101684.22
2022-08-05T10:54:56.991Z,101693.66
2022-08-05T10:57:33.686Z,101687.72
2022-08-05T11:00:42.178Z,101691.09
2022-08-05T11:03:23.033Z,101691.59
2022-08-05T11:06:15.150Z,101695.06
2022-08-05T11:09:31.950Z,101689.78
2022-08-05T11:12:54.208Z,101687.59
2022-08-05T11:16:00.192Z,101685.63
2022-08-05T11:18:29.820Z,101694.03
2022-08-05T11:21:06.244Z,101693.69
2022-08-05T11:24:04.719Z,101683.66
2022-08-05T11:26:36.495Z,101689.53
2022-08-05T11:29:14.013Z,101685.75
2022-08-05T11:31:57.235Z,101692.66
2022-08-05T11:34:39.626Z,101694.50
2022-08-05T11:38:29.464Z,101694.69
2022-08-05T11:40:03.268Z,101705.66
2022-08-05T11:42:33.112Z,101700.13
2022-08-05T11:45:14.288Z,101703.53
2022-08-05T11:47:55.574Z,101700.81
2022-08-05T11:50:25.239Z,101712.19
2022-08-05T11:52:57.756Z,101708.53
2022-08-05T11:55:32.022Z,101708.59
2022-08-05T11:58:09.941Z,101710.13
2022-08-05T12:00:44.324Z,101722.59
2022-08-05T12:03:28.479Z,101722.38
2022-08-05T12:06:01.225Z,101718.78
2022-08-05T12:08:31.741Z,101725.00
2022-08-05T12:11:05.876Z,101722.38
2022-08-05T12:13:48.391Z,101717.78
2022-08-05T12:16:25.437Z,101720.22
2022-08-05T12:18:55.787Z,101717.41
2022-08-05T12:21:26.651Z,101722.31
2022-08-05T12:24:05.235Z,101720.59
2022-08-05T12:26:36.176Z,101729.72
2022-08-05T12:29:06.024Z,101727.16
2022-08-05T12:31:46.185Z,101725.56
2022-08-05T12:34:23.643Z,101725.97
2022-08-05T12:36:54.630Z,101729.44
2022-08-05T12:39:34.743Z,101726.72
2022-08-05T12:42:14.467Z,101721.34
2022-08-05T12:44:44.657Z,101723.81
2022-08-05T12:47:25.631Z,101721.94
2022-08-05T12:50:04.492Z,101725.84
2022-08-05T12:52:39.425Z,101725.31
2022-08-05T12:55:23.556Z,101728.91
2022-08-05T12:58:48.268Z,101729.38
2022-08-05T13:02:00.629Z,101735.22
2022-08-05T13:03:38.930Z,101725.63
2022-08-05T13:06:14.415Z,101727.88
2022-08-05T13:08:50.874Z,101729.38
2022-08-05T13:11:57.860Z,101731.84
2022-08-05T13:14:25.062Z,101733.69
2022-08-05T13:17:09.767Z,101733.63
2022-08-05T13:19:52.337Z,101733.03
2022-08-05T13:22:29.884Z,101735.66
2022-08-05T13:25:00.715Z,101741.13
2022-08-05T13:27:37.707Z,101746.38
2022-08-05T13:30:34.318Z,101740.75
2022-08-05T13:33:01.343Z,101743.22
2022-08-05T13:35:42.716Z,101750.19
2022-08-05T13:38:20.490Z,101748.75
2022-08-05T13:41:00.416Z,101752.25
2022-08-05T13:43:45.890Z,101753.53
2022-08-05T13:46:30.783Z,101753.63
2022-08-05T13:49:10.077Z,101753.63
2022-08-05T13:51:46.569Z,101756.25
2022-08-05T13:54:17.097Z,101764.34
2022-08-05T13:56:51.602Z,101762.81
2022-08-05T13:59:25.102Z,101766.13
2022-08-05T14:01:57.911Z,101763.06
2022-08-05T14:04:49.490Z,101765.59
2022-08-05T14:07:26.492Z,101767.38
2022-08-05T14:10:12.294Z,101769.66
2022-08-05T14:13:34.566Z,101770.31
2022-08-05T14:19:04.789Z,101757.91
2022-08-05T14:22:10.351Z,101767.31
2022-08-05T14:24:40.206Z,101760.25
2022-08-05T14:27:17.838Z,101760.94
2022-08-05T14:29:54.955Z,101760.84
2022-08-05T14:36:20.608Z,101767.31
2022-08-05T14:42:58.325Z,101766.66
2022-08-05T14:46:27.217Z,101770.97
2022-08-05T15:12:04.120Z,101777.69
2022-08-05T15:14:35.097Z,101782.19
2022-08-05T15:17:09.817Z,101785.00
2022-08-05T15:19:55.142Z,101790.66
2022-08-05T15:22:27.309Z,101783.50
2022-08-05T15:25:11.463Z,101782.97
2022-08-05T15:27:52.214Z,101782.78
2022-08-05T15:30:23.264Z,101785.88
2022-08-05T15:32:52.210Z,101790.13
2022-08-05T15:35:21.811Z,101787.13
2022-08-05T15:38:34.582Z,101785.63
2022-08-05T15:41:01.110Z,101789.25
2022-08-05T15:43:29.049Z,101788.84
2022-08-05T15:46:14.050Z,101784.31
2022-08-05T15:48:52.836Z,101784.56
2022-08-05T15:52:09.721Z,101791.00
2022-08-05T15:54:16.440Z,101785.38
2022-08-05T15:56:44.871Z,101788.22
2022-08-05T15:59:21.760Z,101785.50
2022-08-05T16:01:52.754Z,101787.09
2022-08-05T16:04:25.520Z,101783.41
2022-08-05T16:06:55.518Z,101780.28
2022-08-05T16:09:30.396Z,101791.13
2022-08-05T16:12:02.920Z,101786.69
2022-08-05T16:14:33.445Z,101789.44
2022-08-05T16:17:02.549Z,101798.66
2022-08-05T16:20:04.553Z,101792.16
2022-08-05T16:22:24.150Z,101799.63
2022-08-05T16:24:57.515Z,101785.00
2022-08-05T16:27:32.317Z,101795.56
2022-08-05T16:30:25.887Z,101797.16
2022-08-05T16:32:56.672Z,101797.16
2022-08-05T16:35:28.570Z,101798.28
2022-08-05T16:38:23.693Z,101804.59
2022-08-05T16:40:55.588Z,101803.19
2022-08-05T16:43:31.955Z,101806.72
2022-08-05T16:46:23.637Z,101805.31
2022-08-05T16:48:55.669Z,101803.06
2022-08-05T16:51:30.742Z,101809.97
2022-08-05T16:54:02.562Z,101812.06
2022-08-05T16:56:34.740Z,101811.94
2022-08-05T16:59:10.109Z,101808.91
2022-08-05T17:01:54.951Z,101809.59
2022-08-05T17:04:26.167Z,101805.44
2022-08-05T17:07:00.428Z,101803.56
2022-08-05T17:09:38.781Z,101800.69
2022-08-05T17:12:22.368Z,101808.34
2022-08-05T17:15:09.283Z,101799.16
2022-08-05T17:17:42.345Z,101799.69
2022-08-05T17:20:14.523Z,101799.06
2022-08-05T17:22:43.439Z,101802.34
2022-08-05T17:25:22.493Z,101808.53
2022-08-05T17:28:02.215Z,101806.19
2022-08-05T17:30:30.925Z,101804.50
2022-08-05T17:33:00.824Z,101815.03
2022-08-05T17:35:32.611Z,101815.25
2022-08-05T17:38:17.963Z,101814.69
2022-08-05T17:40:46.499Z,101823.63
2022-08-05T17:43:18.004Z,101819.09
2022-08-05T17:46:06.694Z,101829.81
2022-08-05T17:48:40.192Z,101829.09
2022-08-05T17:51:11.701Z,101823.06
2022-08-05T17:53:41.165Z,101827.50
2022-08-05T17:56:11.895Z,101828.50
2022-08-05T17:58:40.934Z,101830.31
2022-08-05T18:01:30.635Z,101834.09
2022-08-05T18:04:27.248Z,101830.09
2022-08-05T18:07:01.103Z,101837.81
2022-08-05T18:09:59.476Z,101831.38
2022-08-05T18:12:22.175Z,101835.16
2022-08-05T18:14:54.488Z,101844.19
2022-08-05T18:18:00.559Z,101839.84
2022-08-05T18:20:15.152Z,101850.56
2022-08-05T18:22:54.238Z,101842.28
2022-08-05T18:25:23.335Z,101847.56
2022-08-05T18:27:53.734Z,101846.50
2022-08-05T18:30:22.108Z,101849.78
2022-08-05T18:33:00.845Z,101842.72
2022-08-05T18:35:59.682Z,101846.97
2022-08-05T18:38:26.511Z,101857.44
2022-08-05T18:41:55.604Z,101857.03
2022-08-05T18:43:48.762Z,101855.28
2022-08-05T18:46:19.981Z,101863.53
2022-08-05T18:48:51.867Z,101861.28
2022-08-05T18:52:05.826Z,101860.69
2022-08-05T18:54:31.557Z,101861.34
2022-08-05T18:57:01.330Z,101863.84
2022-08-05T18:59:43.777Z,101863.94
2022-08-05T19:02:27.948Z,101860.66
2022-08-05T19:05:02.949Z,101872.59
2022-08-05T19:08:06.500Z,101880.41
2022-08-05T19:10:41.955Z,101873.09
2022-08-05T19:13:21.225Z,101875.22
2022-08-05T19:15:59.138Z,101886.19
2022-08-05T19:18:32.566Z,101886.34
2022-08-05T19:21:01.839Z,101889.28
2022-08-05T19:24:05.510Z,101881.44
2022-08-05T19:26:24.230Z,101887.72
2022-08-05T19:28:53.787Z,101889.63
2022-08-05T19:31:25.275Z,101890.63
2022-08-05T19:33:56.404Z,101895.97
2022-08-05T19:36:26.344Z,101896.91
2022-08-05T19:38:58.986Z,101890.16
2022-08-05T19:41:58.220Z,101894.63
2022-08-05T19:44:19.383Z,101900.00
2022-08-05T19:46:50.188Z,101899.13
2022-08-05T19:49:18.994Z,101897.44
2022-08-05T19:52:04.551Z,101897.72
2022-08-05T19:54:38.105Z,101899.66
2022-08-05T19:57:09.224Z,101903.31
2022-08-05T19:59:54.837Z,101900.75
2022-08-05T20:02:31.528Z,101906.03
2022-08-05T20:05:00.348Z,101908.94
2022-08-05T20:07:47.028Z,101913.56
2022-08-05T20:10:22.376Z,101920.78
2022-08-05T20:12:53.050Z,101927.16
2022-08-05T20:15:23.002Z,101931.75
2022-08-05T20:18:33.172Z,101928.41
2022-08-05T20:20:59.877Z,101939.97
2022-08-05T20:23:40.240Z,101942.75
2022-08-05T20:26:19.905Z,101951.56
2022-08-05T20:28:51.009Z,101947.31
2022-08-05T20:31:21.561Z,101952.75
2022-08-05T20:33:51.545Z,101954.69
2022-08-05T20:36:22.475Z,101961.06
2022-08-05T20:38:54.369Z,101952.31
2022-08-05T20:41:43.266Z,101958.53
2022-08-05T20:44:18.433Z,101957.97
2022-08-05T20:46:58.355Z,101967.66
2022-08-05T20:49:27.047Z,101973.06
2022-08-05T20:51:57.315Z,101975.84
2022-08-05T20:54:43.350Z,101976.88
2022-08-05T20:57:42.763Z,101977.88
2022-08-05T21:00:20.287Z,101980.69
2022-08-05T21:03:01.125Z,101982.63
2022-08-05T21:05:48.264Z,101989.78
2022-08-05T21:08:18.656Z,101986.41
2022-08-05T21:10:49.412Z,101990.88
2022-08-05T21:13:26.111Z,101988.66
2022-08-05T21:16:08.778Z,101989.50
2022-08-05T21:18:37.186Z,101987.03
2022-08-05T21:21:05.947Z,101990.66
2022-08-05T21:23:37.345Z,101996.03
2022-08-05T21:26:12.280Z,101991.03
2022-08-05T21:28:48.029Z,101989.47
2022-08-05T21:31:19.527Z,101989.47
2022-08-05T21:33:49.423Z,101988.63
2022-08-05T21:36:27.554Z,101986.97
2022-08-05T21:39:01.923Z,101989.06
2022-08-05T21:41:34.027Z,101992.00
2022-08-05T21:44:05.072Z,101991.25
2022-08-05T21:46:34.612Z,101998.50
2022-08-05T21:49:07.085Z,101992.53
2022-08-05T21:52:22.082Z,101993.63
2022-08-05T21:54:30.853Z,102002.19
2022-08-05T22:00:03.899Z,102006.97
2022-08-05T22:02:35.027Z,102011.66
2022-08-05T22:05:06.295Z,102008.41
2022-08-05T22:07:40.171Z,102018.28
2022-08-05T22:10:27.456Z,102021.06
2022-08-05T22:12:57.633Z,102021.91
2022-08-05T22:15:56.607Z,102018.44
2022-08-05T22:18:18.848Z,102026.22
2022-08-05T22:20:51.719Z,102022.03
2022-08-05T22:24:02.336Z,102024.66
2022-08-05T22:26:49.961Z,102022.13
2022-08-05T22:29:26.758Z,102026.75
2022-08-05T22:32:03.059Z,102031.28
2022-08-05T22:34:32.426Z,102037.47
2022-08-05T22:37:01.145Z,102037.47
2022-08-05T22:39:33.930Z,102040.81
2022-08-05T22:42:09.430Z,102037.28
2022-08-05T22:44:53.802Z,102042.78
2022-08-05T22:47:28.634Z,102046.81
2022-08-05T22:50:19.893Z,102047.22
2022-08-05T22:52:49.673Z,102048.13
2022-08-05T22:55:21.413Z,102047.38
2022-08-05T22:57:51.048Z,102041.97
2022-08-05T23:00:21.737Z,102048.13
2022-08-05T23:02:53.891Z,102051.72
2022-08-05T23:05:23.815Z,102053.50
2022-08-05T23:07:53.260Z,102050.94
2022-08-05T23:10:23.552Z,102051.91
2022-08-05T23:12:54.744Z,102061.69
2022-08-05T23:15:29.388Z,102061.06
2022-08-05T23:18:03.271Z,102060.88
2022-08-05T23:20:37.207Z,102049.50
2022-08-05T23:23:08.302Z,102049.63
2022-08-05T23:25:51.726Z,102044.28
2022-08-05T23:28:28.841Z,102039.97
2022-08-05T23:31:16.024Z,102048.97
2022-08-05T23:34:06.122Z,102050.75
2022-08-05T23:36:40.125Z,102061.34
2022-08-05T23:39:17.445Z,102069.25
2022-08-05T23:41:52.431Z,102073.56
2022-08-05T23:44:27.893Z,102080.69
2022-08-05T23:47:00.159Z,102082.59
2022-08-05T23:49:35.656Z,102085.28
2022-08-05T23:52:22.173Z,102090.53
2022-08-05T23:54:54.306Z,102103.19
2022-08-05T23:57:23.065Z,102102.41
